Time;durP1;ratioP1;P1;durP2;ratioP2;P2;SDS_P1;SDS_P2;PMS_P1;PMS_P2;Temp;Humidity;BMP_temperature;BMP_pressure;BME280_temperature;BME280_humidity;BME280_pressure;Samples;Min_cycle;Max_cycle;Signal;HPM_P1;HPM_P2
2021/11/24 00:02:05;;;;;;;;;;;;;;;17.50;69.50;101852.53;5062604;28;1718;-47
2021/11/24 00:04:35;;;;;;;;;;;;;;;17.52;69.21;101859.63;5069437;28;1690;-47
2021/11/24 00:07:02;;;;;;;;;;;;;;;17.51;69.45;101866.81;5071241;28;1939;-48
2021/11/24 00:09:28;;;;;;;;;;;;;;;17.50;69.47;101868.59;5068155;28;1550;-47
2021/11/24 00:11:58;;;;;;;;;;;;;;;17.50;69.25;101881.13;5062093;28;1948;-47
2021/11/24 00:14:27;;;;;;;;;;;;;;;17.50;69.40;101868.59;5063805;28;1540;-47
2021/11/24 00:17:11;;;;;;;;;;;;;;;17.52;68.86;101891.72;5063777;28;1714;-48
2021/11/24 00:19:37;;;;;;;;;;;;;;;17.50;69.26;101889.13;5060397;28;1624;-48
2021/11/24 00:22:07;;;;;;;;;;;;;;;17.50;69.54;101873.94;5069315;28;1755;-47
2021/11/24 00:24:35;;;;;;;;;;;;;;;17.48;69.26;101870.50;5070427;28;1700;-47
2021/11/24 00:27:06;;;;;;;;;;;;;;;17.46;69.27;101872.41;5067851;28;1606;-47
2021/11/24 00:29:33;;;;;;;;;;;;;;;17.47;68.83;101879.50;5069283;28;1992;-47
2021/11/24 00:32:01;;;;;;;;;;;;;;;17.46;69.45;101885.78;5064406;28;1774;-47
2021/11/24 00:34:34;;;;;;;;;;;;;;;17.45;69.42;101875.22;5061832;28;1697;-47
2021/11/24 00:37:01;;;;;;;;;;;;;;;17.46;69.22;101869.75;5070840;28;1740;-47
2021/11/24 00:39:27;;;;;;;;;;;;;;;17.44;69.34;101879.69;5066339;28;1596;-47
2021/11/24 00:41:55;;;;;;;;;;;;;;;17.45;68.98;101876.06;5058705;28;1740;-47
2021/11/24 00:47:03;;;;;;;;;;;;;;;17.43;69.18;101879.81;5068114;28;2205;-47
2021/11/24 00:49:30;;;;;;;;;;;;;;;17.46;69.41;101887.63;5065085;28;1941;-47
2021/11/24 00:51:56;;;;;;;;;;;;;;;17.43;69.46;101877.13;5062611;28;1776;-47
2021/11/24 00:54:23;;;;;;;;;;;;;;;17.42;69.11;101876.25;5063210;28;1526;-47
2021/11/24 00:56:50;;;;;;;;;;;;;;;17.44;69.33;101879.69;5060009;28;1670;-47
2021/11/24 00:59:25;;;;;;;;;;;;;;;17.42;69.52;101881.59;5066094;28;1660;-47
2021/11/24 01:01:53;;;;;;;;;;;;;;;17.39;69.33;101873.78;5057689;28;1706;-47
2021/11/24 01:04:24;;;;;;;;;;;;;;;17.42;69.07;101888.78;5065354;28;1498;-46
2021/11/24 01:06:58;;;;;;;;;;;;;;;17.42;69.30;101880.75;5066384;28;1609;-47
2021/11/24 01:09:25;;;;;;;;;;;;;;;17.40;69.22;101882.66;5063262;28;1985;-47
2021/11/24 01:11:52;;;;;;;;;;;;;;;17.39;69.10;101876.47;5062816;28;1715;-47
2021/11/24 01:14:21;;;;;;;;;;;;;;;17.39;69.61;101876.47;5066709;28;1739;-47
2021/11/24 01:16:49;;;;;;;;;;;;;;;17.38;69.23;101879.22;5068566;28;1703;-47
2021/11/24 01:19:17;;;;;;;;;;;;;;;17.37;69.78;101878.38;5061203;28;2063;-47
2021/11/24 01:21:48;;;;;;;;;;;;;;;17.37;69.30;101881.06;5071186;28;1819;-47
2021/11/24 01:24:17;;;;;;;;;;;;;;;17.35;69.19;101874.94;5069108;28;1667;-47
2021/11/24 01:26:44;;;;;;;;;;;;;;;17.38;69.32;101890.78;5063685;28;1787;-47
2021/11/24 01:29:11;;;;;;;;;;;;;;;17.38;69.29;101879.22;5063145;28;2016;-48
2021/11/24 01:31:38;;;;;;;;;;;;;;;17.37;69.32;101882.84;5060672;28;1762;-47
2021/11/24 01:36:46;;;;;;;;;;;;;;;17.35;69.31;101888.31;5071335;28;2556;-47
2021/11/24 01:39:13;;;;;;;;;;;;;;;17.37;69.12;101889.06;5062486;28;1600;-46
2021/11/24 01:41:42;;;;;;;;;;;;;;;17.34;69.49;101877.72;5062708;28;1843;-47
2021/11/24 01:44:24;;;;;;;;;;;;;;;17.36;69.22;101884.66;5065925;28;1772;-47
2021/11/24 01:47:00;;;;;;;;;;;;;;;17.34;69.34;101881.22;5057939;28;1510;-47
2021/11/24 01:49:28;;;;;;;;;;;;;;;17.32;69.29;101866.25;5066518;28;1996;-47
2021/11/24 01:51:59;;;;;;;;;;;;;;;17.29;69.05;101870.84;5071653;28;1783;-47
2021/11/24 01:54:28;;;;;;;;;;;;;;;17.32;69.47;101869.78;5067249;28;1726;-48
2021/11/24 01:56:54;;;;;;;;;;;;;;;17.30;69.30;101869.88;5072430;28;1961;-47
2021/11/24 01:59:26;;;;;;;;;;;;;;;17.32;69.19;101877.78;5070421;28;1489;-47
2021/11/24 02:01:54;;;;;;;;;;;;;;;17.30;69.39;101866.34;5066269;28;1446;-47
2021/11/24 02:04:47;;;;;;;;;;;;;;;17.29;69.33;101872.66;5068784;28;1986;-48
2021/11/24 02:07:25;;;;;;;;;;;;;;;17.30;69.13;101883.22;5061426;28;1503;-47
2021/11/24 02:09:51;;;;;;;;;;;;;;;17.28;69.18;101874.44;5062132;28;1910;-47
2021/11/24 02:12:24;;;;;;;;;;;;;;;17.30;69.16;101890.41;5056848;28;1493;-47
2021/11/24 02:14:53;;;;;;;;;;;;;;;17.30;69.34;101898.41;5063203;28;1654;-47
2021/11/24 02:17:22;;;;;;;;;;;;;;;17.30;69.50;101880.56;5072571;28;1704;-48
2021/11/24 02:19:50;;;;;;;;;;;;;;;17.27;69.27;101880.78;5065477;28;1597;-46
2021/11/24 02:22:19;;;;;;;;;;;;;;;17.25;69.28;101876.50;5071248;28;1404;-47
2021/11/24 02:27:28;;;;;;;;;;;;;;;17.23;69.18;101867.69;5069733;28;2439;-47
2021/11/24 02:29:54;;;;;;;;;;;;;;;17.27;68.57;101883.44;5069358;28;1967;-47
2021/11/24 02:32:27;;;;;;;;;;;;;;;17.27;69.22;101882.59;5062699;28;1578;-47
2021/11/24 02:34:53;;;;;;;;;;;;;;;17.28;69.22;101892.31;5072270;28;1793;-47
2021/11/24 02:37:27;;;;;;;;;;;;;;;17.24;69.23;101880.94;5071250;28;2158;-47
2021/11/24 02:39:57;;;;;;;;;;;;;;;17.26;69.37;101903.09;5066173;28;1657;-47
2021/11/24 02:42:26;;;;;;;;;;;;;;;17.23;69.11;101881.03;5070235;28;1678;-46
2021/11/24 02:44:55;;;;;;;;;;;;;;;17.22;69.15;101885.53;5067380;28;1637;-46
2021/11/24 02:47:31;;;;;;;;;;;;;;;17.24;69.25;101888.13;5065735;28;1530;-46
2021/11/24 02:50:00;;;;;;;;;;;;;;;17.28;69.20;101895.00;5065176;28;1911;-47
2021/11/24 02:52:31;;;;;;;;;;;;;;;17.25;69.21;101898.72;5070050;28;1587;-47
2021/11/24 02:55:01;;;;;;;;;;;;;;;17.25;69.35;101896.06;5070273;28;1628;-47
2021/11/24 02:57:31;;;;;;;;;;;;;;;17.24;69.46;101883.63;5069987;28;1642;-47
2021/11/24 02:59:58;;;;;;;;;;;;;;;17.24;69.50;101894.31;5069448;28;1575;-46
2021/11/24 03:02:26;;;;;;;;;;;;;;;17.21;69.79;101904.34;5083345;22;3516;-66
2021/11/24 03:04:53;;;;;;;;;;;;;;;17.22;69.33;101916.75;5067344;28;1416;-74
2021/11/24 03:07:19;;;;;;;;;;;;;;;17.19;69.11;101899.13;5059842;28;1247;-65
2021/11/24 03:09:52;;;;;;;;;;;;;;;17.21;69.36;101913.25;5061184;28;1902;-66
2021/11/24 03:12:18;;;;;;;;;;;;;;;17.20;69.25;101916.84;5069612;28;1443;-75
2021/11/24 03:14:45;;;;;;;;;;;;;;;17.21;69.13;101915.03;5069013;28;1573;-75
2021/11/24 03:17:11;;;;;;;;;;;;;;;17.22;69.12;101916.75;5063329;28;1540;-73
2021/11/24 03:19:38;;;;;;;;;;;;;;;17.22;69.28;101906.06;5064853;28;1374;-74
2021/11/24 03:22:04;;;;;;;;;;;;;;;17.19;69.21;101925.84;5065608;28;1321;-74
2021/11/24 03:24:31;;;;;;;;;;;;;;;17.21;69.20;101928.41;5062797;28;1174;-74
2021/11/24 03:26:59;;;;;;;;;;;;;;;17.21;69.35;101939.09;5070356;28;1517;-66
2021/11/24 03:29:25;;;;;;;;;;;;;;;17.19;69.19;101930.31;5063343;28;1910;-65
2021/11/24 03:31:52;;;;;;;;;;;;;;;17.22;69.32;101941.66;5070080;28;1369;-66
2021/11/24 03:34:19;;;;;;;;;;;;;;;17.20;69.12;101934.72;5065917;28;1580;-66
2021/11/24 03:36:45;;;;;;;;;;;;;;;17.20;69.20;101948.94;5065481;28;1597;-65
2021/11/24 03:39:12;;;;;;;;;;;;;;;17.18;69.11;101947.31;5063347;28;1902;-74
2021/11/24 03:41:38;;;;;;;;;;;;;;;17.17;69.08;101929.53;5057492;28;1527;-65
2021/11/24 03:44:06;;;;;;;;;;;;;;;17.20;69.35;101948.06;5063859;28;1562;-74
2021/11/24 03:46:33;;;;;;;;;;;;;;;17.15;69.18;101936.78;5060836;28;1625;-66
2021/11/24 03:49:00;;;;;;;;;;;;;;;17.18;69.14;101949.97;5065048;28;1409;-65
2021/11/24 03:51:26;;;;;;;;;;;;;;;17.14;69.09;101932.41;5056573;28;1284;-74
2021/11/24 03:53:53;;;;;;;;;;;;;;;17.16;69.13;101949.22;5067457;28;1542;-75
2021/11/24 03:56:19;;;;;;;;;;;;;;;17.14;69.17;101946.63;5064801;28;1503;-73
2021/11/24 03:58:46;;;;;;;;;;;;;;;17.11;69.12;101936.16;5062414;28;1961;-65
2021/11/24 04:01:14;;;;;;;;;;;;;;;17.14;69.30;101941.28;5063759;28;1542;-74
2021/11/24 04:03:41;;;;;;;;;;;;;;;17.14;69.38;101945.78;5058575;28;1491;-65
2021/11/24 04:06:08;;;;;;;;;;;;;;;17.16;69.28;101944.72;5061762;28;1427;-66
2021/11/24 04:08:35;;;;;;;;;;;;;;;17.13;69.25;101955.63;5064197;28;1587;-74
2021/11/24 04:11:01;;;;;;;;;;;;;;;17.14;69.15;101940.44;5062268;28;1325;-70
2021/11/24 04:13:28;;;;;;;;;;;;;;;17.15;69.04;101948.38;5068838;28;1459;-74
2021/11/24 04:15:54;;;;;;;;;;;;;;;17.13;69.47;101941.38;5057441;28;1558;-74
2021/11/24 04:18:22;;;;;;;;;;;;;;;17.12;69.47;101947.69;5063397;28;1991;-75
2021/11/24 04:20:49;;;;;;;;;;;;;;;17.13;69.31;101963.66;5069581;28;1214;-66
2021/11/24 04:23:16;;;;;;;;;;;;;;;17.09;69.22;101960.28;5058056;28;1716;-74
2021/11/24 04:25:42;;;;;;;;;;;;;;;17.10;69.10;101956.66;5058499;28;1430;-66
2021/11/24 04:28:09;;;;;;;;;;;;;;;17.10;69.10;101959.31;5059396;28;1255;-73
2021/11/24 04:30:36;;;;;;;;;;;;;;;17.10;69.20;101972.69;5057139;28;1491;-65
2021/11/24 04:33:02;;;;;;;;;;;;;;;17.12;69.08;101969.06;5067025;28;1538;-66
2021/11/24 04:35:30;;;;;;;;;;;;;;;17.10;69.17;101975.34;5061872;28;1253;-66
2021/11/24 04:38:00;;;;;;;;;;;;;;;17.08;69.35;101973.75;5061771;28;1827;-74
2021/11/24 04:40:26;;;;;;;;;;;;;;;17.06;69.08;101970.31;5067233;28;1979;-75
2021/11/24 04:42:54;;;;;;;;;;;;;;;17.06;69.12;101967.63;5067563;28;1455;-75
2021/11/24 04:45:21;;;;;;;;;;;;;;;17.08;69.07;101971.06;5067726;28;1378;-74
2021/11/24 04:47:48;;;;;;;;;;;;;;;17.10;69.30;101985.19;5052797;28;1565;-66
2021/11/24 04:50:16;;;;;;;;;;;;;;;17.06;69.49;101981.84;5067892;28;1392;-67
2021/11/24 04:52:44;;;;;;;;;;;;;;;17.08;69.41;101987.97;5060968;28;1578;-75
2021/11/24 04:55:11;;;;;;;;;;;;;;;17.08;69.40;101987.97;5062607;28;1369;-75
2021/11/24 04:57:37;;;;;;;;;;;;;;;17.06;69.22;101989.00;5066092;28;1408;-66
2021/11/24 05:00:06;;;;;;;;;;;;;;;17.06;69.21;101995.22;5064873;28;1996;-74
2021/11/24 05:02:34;;;;;;;;;;;;;;;17.07;69.11;101994.28;5063574;28;1356;-74
2021/11/24 05:05:00;;;;;;;;;;;;;;;17.05;68.53;101993.50;5064122;28;1640;-66
2021/11/24 05:07:27;;;;;;;;;;;;;;;17.07;68.92;101999.63;5066301;28;1530;-73
2021/11/24 05:09:55;;;;;;;;;;;;;;;17.07;69.17;101999.63;5067329;28;1366;-74
2021/11/24 05:12:23;;;;;;;;;;;;;;;17.06;68.95;101997.88;5057058;28;1241;-74
2021/11/24 05:14:50;;;;;;;;;;;;;;;17.07;69.34;102007.63;5059147;28;1401;-74
2021/11/24 05:17:20;;;;;;;;;;;;;;;17.07;69.21;102010.31;5062994;28;1456;-65
2021/11/24 05:19:48;;;;;;;;;;;;;;;17.06;69.11;102019.25;5062789;28;1977;-66
2021/11/24 05:22:16;;;;;;;;;;;;;;;17.06;69.35;102024.59;5057756;28;1495;-74
2021/11/24 05:24:43;;;;;;;;;;;;;;;17.08;69.17;102033.41;5059641;28;1475;-66
2021/11/24 05:27:11;;;;;;;;;;;;;;;17.07;68.81;102029.00;5068552;28;1495;-73
2021/11/24 05:29:39;;;;;;;;;;;;;;;17.06;69.02;102029.94;5061045;28;1496;-66
2021/11/24 05:32:06;;;;;;;;;;;;;;;17.06;69.05;102035.28;5061752;28;1402;-74
2021/11/24 05:34:32;;;;;;;;;;;;;;;17.10;69.30;102047.53;5060392;28;1405;-65
2021/11/24 05:37:00;;;;;;;;;;;;;;;17.08;69.12;102051.25;5061661;28;1527;-66
2021/11/24 05:39:26;;;;;;;;;;;;;;;17.06;68.96;102037.97;5061192;28;1930;-65
2021/11/24 05:41:53;;;;;;;;;;;;;;;17.10;69.09;102052.88;5059841;28;1746;-74
2021/11/24 05:44:23;;;;;;;;;;;;;;;17.10;68.98;102046.66;5057996;28;1477;-66
2021/11/24 05:46:54;;;;;;;;;;;;;;;17.10;68.96;102054.69;5062311;28;1757;-65
2021/11/24 05:49:21;;;;;;;;;;;;;;;17.11;69.03;102064.44;5066313;28;1312;-69
2021/11/24 05:51:47;;;;;;;;;;;;;;;17.13;68.97;102067.00;5058622;28;1671;-76
2021/11/24 05:54:14;;;;;;;;;;;;;;;17.08;68.76;102057.44;5060865;28;1573;-73
2021/11/24 05:56:41;;;;;;;;;;;;;;;17.22;68.68;102055.78;5064397;28;1616;-64
2021/11/24 05:59:08;;;;;;;;;;;;;;;17.28;68.88;102071.44;5059342;28;1956;-66
2021/11/24 06:01:36;;;;;;;;;;;;;;;17.38;68.54;102069.06;5061138;28;1384;-70
2021/11/24 06:04:03;;;;;;;;;;;;;;;17.72;68.18;102078.56;5059239;28;1632;-64
2021/11/24 06:06:30;;;;;;;;;;;;;;;17.94;67.20;102085.28;5059788;28;1286;-71
2021/11/24 06:08:56;;;;;;;;;;;;;;;18.18;67.19;102078.34;5053577;28;1507;-66
2021/11/24 06:11:23;;;;;;;;;;;;;;;18.34;66.75;102082.72;5057978;28;1513;-62
2021/11/24 06:13:50;;;;;;;;;;;;;;;18.28;66.43;102095.56;5059862;28;1206;-70
2021/11/24 06:16:16;;;;;;;;;;;;;;;18.35;66.76;102089.81;5058140;28;1337;-67
2021/11/24 06:18:44;;;;;;;;;;;;;;;18.29;66.50;102094.59;5061459;28;1476;-65
2021/11/24 06:21:11;;;;;;;;;;;;;;;18.25;67.18;102095.75;5059774;28;1905;-65
2021/11/24 06:23:39;;;;;;;;;;;;;;;18.28;67.38;102097.38;5056481;28;1306;-66
2021/11/24 06:26:06;;;;;;;;;;;;;;;18.19;67.55;102111.38;5058736;28;1246;-62
2021/11/24 06:28:33;;;;;;;;;;;;;;;18.18;68.02;102098.94;5057202;28;1717;-69
2021/11/24 06:31:00;;;;;;;;;;;;;;;18.25;68.19;102111.81;5057760;28;1586;-69
2021/11/24 06:33:27;;;;;;;;;;;;;;;18.40;67.63;102109.13;5057463;28;1582;-67
2021/11/24 06:35:55;;;;;;;;;;;;;;;18.45;66.69;102117.72;5063097;28;1454;-65
2021/11/24 06:38:21;;;;;;;;;;;;;;;18.58;67.29;102109.75;5060662;28;1515;-66
2021/11/24 06:40:48;;;;;;;;;;;;;;;18.64;67.10;102112.91;5061365;28;1910;-67
2021/11/24 06:43:14;;;;;;;;;;;;;;;18.80;66.37;102134.22;5070880;28;1526;-72
2021/11/24 06:45:42;;;;;;;;;;;;;;;18.72;66.02;102127.59;5066118;28;1641;-63
2021/11/24 06:48:09;;;;;;;;;;;;;;;18.67;66.37;102134.13;5069770;28;1372;-66
2021/11/24 06:50:35;;;;;;;;;;;;;;;18.65;66.97;102119.97;5060870;28;1742;-67
2021/11/24 06:53:03;;;;;;;;;;;;;;;18.66;67.04;102121.69;5067681;28;1632;-64
2021/11/24 06:55:30;;;;;;;;;;;;;;;18.39;67.36;102134.19;5061887;28;1365;-62
2021/11/24 06:57:57;;;;;;;;;;;;;;;18.03;68.34;102123.03;5067747;28;1403;-68
2021/11/24 07:00:25;;;;;;;;;;;;;;;17.87;68.00;102132.97;5061125;28;1983;-63
2021/11/24 07:02:52;;;;;;;;;;;;;;;17.76;68.38;102130.91;5064367;28;1428;-65
2021/11/24 07:05:18;;;;;;;;;;;;;;;17.70;69.01;102142.84;5068136;28;1373;-63
2021/11/24 07:07:45;;;;;;;;;;;;;;;17.70;69.04;102150.03;5067675;28;1449;-63
2021/11/24 07:10:13;;;;;;;;;;;;;;;17.60;69.22;102141.69;5069634;28;1384;-63
2021/11/24 07:12:40;;;;;;;;;;;;;;;17.59;68.87;102137.31;5068264;28;1322;-68
2021/11/24 07:15:07;;;;;;;;;;;;;;;17.59;69.23;102144.47;5065250;28;1573;-69
2021/11/24 07:17:33;;;;;;;;;;;;;;;17.55;69.28;102153.63;5073758;28;1747;-63
2021/11/24 07:20:01;;;;;;;;;;;;;;;17.51;69.48;102142.25;5072159;28;1906;-68
2021/11/24 07:22:27;;;;;;;;;;;;;;;17.46;69.91;102145.19;5062296;28;1412;-64
2021/11/24 07:24:54;;;;;;;;;;;;;;;17.46;69.61;102150.53;5069391;28;1400;-68
2021/11/24 07:27:22;;;;;;;;;;;;;;;17.41;69.45;102158.00;5062505;28;1450;-69
2021/11/24 07:29:49;;;;;;;;;;;;;;;17.41;69.40;102158.00;5066556;28;1435;-68
2021/11/24 07:32:15;;;;;;;;;;;;;;;17.35;69.28;102147.66;5064551;28;1223;-68
2021/11/24 07:34:42;;;;;;;;;;;;;;;17.34;69.28;102153.09;5073303;28;1651;-63
2021/11/24 07:37:08;;;;;;;;;;;;;;;17.36;69.00;102159.22;5065131;28;1197;-63
2021/11/24 07:39:35;;;;;;;;;;;;;;;17.35;69.14;102162.81;5066999;28;1902;-68
2021/11/24 07:42:02;;;;;;;;;;;;;;;17.33;68.97;102157.59;5071857;28;1568;-64
2021/11/24 07:44:30;;;;;;;;;;;;;;;17.30;69.02;102157.75;5063346;28;1723;-63
2021/11/24 07:46:56;;;;;;;;;;;;;;;17.30;68.93;102168.44;5065037;28;1625;-63
2021/11/24 07:49:23;;;;;;;;;;;;;;;17.25;68.52;102155.38;5069119;28;1341;-63
2021/11/24 07:51:49;;;;;;;;;;;;;;;17.26;68.59;102173.13;5066054;28;1287;-63
2021/11/24 07:54:16;;;;;;;;;;;;;;;17.26;68.64;102177.59;5068474;28;1465;-68
2021/11/24 07:56:42;;;;;;;;;;;;;;;17.26;68.70;102190.97;5066398;28;1523;-63
2021/11/24 07:59:09;;;;;;;;;;;;;;;17.25;68.75;102171.41;5066856;28;1406;-68
2021/11/24 08:01:37;;;;;;;;;;;;;;;17.23;68.88;102178.66;5064814;28;1901;-67
2021/11/24 08:04:04;;;;;;;;;;;;;;;17.23;68.87;102175.09;5067432;28;1622;-63
2021/11/24 08:06:30;;;;;;;;;;;;;;;17.22;68.79;102174.25;5073755;28;1228;-68
2021/11/24 08:08:57;;;;;;;;;;;;;;;17.20;68.54;102172.63;5071709;28;1318;-63
2021/11/24 08:11:23;;;;;;;;;;;;;;;17.15;68.48;102183.59;5070504;28;1350;-68
2021/11/24 08:13:50;;;;;;;;;;;;;;;17.20;68.95;102180.63;5061732;28;1362;-64
2021/11/24 08:16:16;;;;;;;;;;;;;;;17.18;68.46;102182.53;5065296;28;1306;-67
2021/11/24 08:18:44;;;;;;;;;;;;;;;17.16;68.79;102174.59;5065478;28;1521;-67
2021/11/24 08:21:11;;;;;;;;;;;;;;;17.17;69.00;102180.81;5064059;28;1980;-68
2021/11/24 08:23:37;;;;;;;;;;;;;;;17.12;68.69;102185.56;5061565;28;1591;-63
2021/11/24 08:26:04;;;;;;;;;;;;;;;17.15;68.78;102175.56;5059558;28;1590;-63
2021/11/24 08:28:31;;;;;;;;;;;;;;;17.13;68.77;102179.25;5071255;28;1629;-67
2021/11/24 08:30:57;;;;;;;;;;;;;;;17.15;68.39;102183.59;5063337;28;1322;-63
2021/11/24 08:33:24;;;;;;;;;;;;;;;17.15;68.45;102193.41;5071549;28;1414;-68
2021/11/24 08:35:52;;;;;;;;;;;;;;;17.13;68.51;102173.91;5065028;28;1565;-63
2021/11/24 08:38:18;;;;;;;;;;;;;;;17.14;68.00;102176.50;5061966;28;1423;-63
2021/11/24 08:40:45;;;;;;;;;;;;;;;17.13;68.43;102173.91;5063594;28;1969;-68
2021/11/24 08:43:12;;;;;;;;;;;;;;;17.14;68.36;102189.00;5070360;28;1417;-63
2021/11/24 08:45:38;;;;;;;;;;;;;;;17.12;68.20;102190.91;5066221;28;1459;-68
2021/11/24 08:48:05;;;;;;;;;;;;;;;17.12;68.42;102182.91;5066182;28;1230;-64
2021/11/24 08:50:32;;;;;;;;;;;;;;;17.13;68.25;102173.91;5063399;28;1675;-67
2021/11/24 08:53:01;;;;;;;;;;;;;;;17.15;68.28;102191.59;5070096;28;1373;-65
2021/11/24 08:55:27;;;;;;;;;;;;;;;17.14;68.26;102172.97;5069204;28;1407;-68
2021/11/24 08:57:54;;;;;;;;;;;;;;;17.16;68.46;102177.28;5065386;28;1479;-68
2021/11/24 09:00:22;;;;;;;;;;;;;;;17.15;68.40;102167.56;5064273;28;1911;-68
2021/11/24 09:02:50;;;;;;;;;;;;;;;17.16;68.65;102168.41;5070373;28;1528;-63
2021/11/24 09:05:17;;;;;;;;;;;;;;;17.15;68.54;102178.25;5068006;28;1227;-68
2021/11/24 09:07:44;;;;;;;;;;;;;;;17.16;68.75;102168.41;5058726;28;1453;-63
2021/11/24 09:10:12;;;;;;;;;;;;;;;17.16;68.70;102163.06;5067399;28;1423;-68
2021/11/24 09:12:39;;;;;;;;;;;;;;;17.16;68.96;102155.03;5066930;28;1626;-68
2021/11/24 09:15:06;;;;;;;;;;;;;;;17.21;68.90;102160.97;5072459;28;1419;-68
2021/11/24 09:17:32;;;;;;;;;;;;;;;17.20;68.95;102153.91;5063338;28;1482;-68
2021/11/24 09:19:59;;;;;;;;;;;;;;;17.16;68.78;102153.22;5069979;28;1910;-68
2021/11/24 09:22:26;;;;;;;;;;;;;;;17.12;68.87;102140.13;5057512;28;1373;-68
2021/11/24 09:24:56;;;;;;;;;;;;;;;17.15;68.80;102151.50;5061216;28;1412;-63
2021/11/24 09:27:30;;;;;;;;;;;;;;;17.19;69.01;102142.38;5071237;28;1248;-63
2021/11/24 09:29:57;;;;;;;;;;;;;;;17.21;69.27;102152.94;5062742;28;1640;-68
2021/11/24 09:32:24;;;;;;;;;;;;;;;17.22;69.03;102142.16;5066945;28;1759;-63
2021/11/24 09:34:50;;;;;;;;;;;;;;;17.20;69.02;102137.88;5070178;28;1597;-68
2021/11/24 09:37:17;;;;;;;;;;;;;;;17.17;68.86;102143.38;5053991;28;1314;-68
2021/11/24 09:39:44;;;;;;;;;;;;;;;17.21;69.02;102148.47;5064923;28;1323;-68
2021/11/24 09:42:11;;;;;;;;;;;;;;;17.21;68.84;102136.91;5062979;28;1975;-68
2021/11/24 09:44:39;;;;;;;;;;;;;;;17.26;68.40;102142.84;5065786;28;1878;-63
2021/11/24 09:47:08;;;;;;;;;;;;;;;17.21;68.92;102129.75;5070156;28;1719;-68
2021/11/24 09:49:35;;;;;;;;;;;;;;;17.25;68.70;102138.47;5067933;28;1335;-63
2021/11/24 09:52:02;;;;;;;;;;;;;;;17.20;68.98;102124.50;5071025;28;1416;-68
2021/11/24 09:54:29;;;;;;;;;;;;;;;17.20;68.94;102124.50;5066260;28;1265;-64
2021/11/24 09:56:56;;;;;;;;;;;;;;;17.19;69.29;102120.09;5063852;28;1586;-68
2021/11/24 09:59:23;;;;;;;;;;;;;;;17.21;68.67;102112.84;5059414;28;1348;-63
2021/11/24 10:01:51;;;;;;;;;;;;;;;17.20;68.97;102117.34;5067693;28;1973;-68
2021/11/24 10:04:18;;;;;;;;;;;;;;;17.19;68.70;102109.41;5068818;28;1683;-68
2021/11/24 10:06:45;;;;;;;;;;;;;;;17.19;69.04;102115.63;5069621;28;1366;-63
2021/11/24 10:09:12;;;;;;;;;;;;;;;17.19;69.26;102109.41;5067205;28;1498;-63
2021/11/24 10:11:38;;;;;;;;;;;;;;;17.20;68.60;102100.44;5069387;28;1536;-63
2021/11/24 10:14:05;;;;;;;;;;;;;;;17.18;69.45;102103.19;5073681;28;1397;-69
2021/11/24 10:16:32;;;;;;;;;;;;;;;17.18;68.88;102088.97;5076402;28;1465;-67
2021/11/24 10:19:02;;;;;;;;;;;;;;;17.22;69.04;102093.19;5063826;28;1374;-63
2021/11/24 10:21:29;;;;;;;;;;;;;;;17.16;68.78;102093.56;5071566;28;1906;-63
2021/11/24 10:23:58;;;;;;;;;;;;;;;17.21;68.97;102091.47;5072726;28;1377;-63
2021/11/24 10:26:27;;;;;;;;;;;;;;;17.17;68.75;102090.81;5066318;28;1450;-67
2021/11/24 10:28:56;;;;;;;;;;;;;;;17.19;68.98;102091.56;5064895;28;1574;-68
2021/11/24 10:31:23;;;;;;;;;;;;;;;17.17;68.87;102073.88;5067717;28;1191;-67
2021/11/24 10:33:50;;;;;;;;;;;;;;;17.18;68.74;102081.81;5070015;28;1518;-68
2021/11/24 10:36:18;;;;;;;;;;;;;;;17.17;68.91;102082.78;5073457;28;1408;-63
2021/11/24 10:38:46;;;;;;;;;;;;;;;17.20;68.75;102071.03;5065384;28;1593;-68
2021/11/24 10:41:13;;;;;;;;;;;;;;;17.20;68.68;102066.53;5070460;28;1910;-63
2021/11/24 10:43:44;;;;;;;;;;;;;;;17.19;68.68;102069.31;5066730;28;1363;-68
2021/11/24 10:46:13;;;;;;;;;;;;;;;17.20;68.73;102063.03;5069943;28;1601;-69
2021/11/24 10:48:40;;;;;;;;;;;;;;;17.19;68.70;102072.88;5070727;28;1558;-67
2021/11/24 10:51:21;;;;;;;;;;;;;;;17.15;68.96;102049.94;5076854;28;1454;-63
2021/11/24 10:54:03;;;;;;;;;;;;;;;17.19;69.04;102055.94;5074723;28;1342;-63
2021/11/24 10:56:30;;;;;;;;;;;;;;;17.17;68.91;102053.38;5071084;28;1595;-63
2021/11/24 10:59:12;;;;;;;;;;;;;;;17.19;68.85;102050.59;5069643;28;1391;-68
2021/11/24 11:01:39;;;;;;;;;;;;;;;17.18;68.75;102040.88;5072742;28;1909;-64
2021/11/24 11:04:08;;;;;;;;;;;;;;;17.20;69.12;102036.28;5074043;28;1381;-63
2021/11/24 11:06:34;;;;;;;;;;;;;;;17.15;69.00;102033.03;5067357;28;1396;-68
2021/11/24 11:09:02;;;;;;;;;;;;;;;17.17;69.02;102032.00;5071939;28;1715;-63
2021/11/24 11:11:29;;;;;;;;;;;;;;;17.17;69.10;102028.44;5074022;28;1649;-63
2021/11/24 11:14:10;;;;;;;;;;;;;;;17.17;69.18;102039.13;5066690;28;1244;-64
2021/11/24 11:16:44;;;;;;;;;;;;;;;17.17;69.06;102036.47;5069205;28;1967;-68
2021/11/24 11:19:10;;;;;;;;;;;;;;;17.17;69.22;102031.13;5069601;28;1609;-68
2021/11/24 11:21:37;;;;;;;;;;;;;;;17.17;69.07;102017.75;5066949;28;1975;-64
2021/11/24 11:24:08;;;;;;;;;;;;;;;17.17;69.06;102025.78;5064956;28;1724;-67
2021/11/24 11:26:35;;;;;;;;;;;;;;;17.14;69.02;102017.94;5070113;28;1603;-68
2021/11/24 11:29:01;;;;;;;;;;;;;;;17.16;69.23;102010.69;5073231;28;1377;-68
2021/11/24 11:31:28;;;;;;;;;;;;;;;17.19;68.74;102014.06;5069621;28;1519;-64
2021/11/24 11:33:56;;;;;;;;;;;;;;;17.16;68.87;102005.34;5064161;28;1388;-63
2021/11/24 11:36:23;;;;;;;;;;;;;;;17.18;69.28;102015.00;5059252;28;1483;-67
2021/11/24 11:38:50;;;;;;;;;;;;;;;17.17;69.15;102009.72;5064723;28;1724;-63
2021/11/24 11:41:19;;;;;;;;;;;;;;;17.16;69.08;102008.88;5063820;28;1973;-68
2021/11/24 11:43:49;;;;;;;;;;;;;;;17.16;69.60;101989.31;5069960;28;1419;-63
2021/11/24 11:46:16;;;;;;;;;;;;;;;17.15;69.01;101984.91;5073172;28;1598;-63
2021/11/24 11:48:43;;;;;;;;;;;;;;;17.16;69.03;101987.50;5064456;28;1308;-68
2021/11/24 11:51:10;;;;;;;;;;;;;;;17.19;68.91;101999.81;5068161;28;1257;-63
2021/11/24 11:53:38;;;;;;;;;;;;;;;17.18;68.93;101988.25;5070840;28;1421;-63
2021/11/24 11:56:26;;;;;;;;;;;;;;;17.19;69.70;101992.66;5065335;28;1447;-63
2021/11/24 11:58:56;;;;;;;;;;;;;;;17.15;69.25;101999.16;5069246;28;1370;-63
2021/11/24 12:01:24;;;;;;;;;;;;;;;17.17;69.10;101991.91;5072321;28;1979;-68
2021/11/24 12:04:08;;;;;;;;;;;;;;;17.18;68.93;101990.09;5063061;28;1316;-68
2021/11/24 12:06:38;;;;;;;;;;;;;;;17.18;69.07;101992.75;5070829;28;1653;-68
2021/11/24 12:09:11;;;;;;;;;;;;;;;17.21;69.10;101992.56;5066525;28;1758;-68
2021/11/24 12:11:56;;;;;;;;;;;;;;;17.18;69.12;101982.06;5070631;28;1645;-64
2021/11/24 12:14:47;;;;;;;;;;;;;;;17.14;68.93;101959.16;5070757;28;1739;-68
2021/11/24 12:17:33;;;;;;;;;;;;;;;17.18;69.04;101964.19;5062360;28;1377;-63
2021/11/24 12:20:01;;;;;;;;;;;;;;;17.16;69.11;101967.94;5071495;28;1592;-68
2021/11/24 12:22:47;;;;;;;;;;;;;;;17.16;69.16;101970.59;5059716;28;1973;-63
2021/11/24 12:25:30;;;;;;;;;;;;;;;17.15;69.45;101972.44;5068029;28;1376;-68
2021/11/24 12:28:06;;;;;;;;;;;;;;;17.18;69.04;101963.34;5068335;28;1290;-63
2021/11/24 12:30:52;;;;;;;;;;;;;;;17.16;69.01;101963.44;5061698;28;1407;-63
2021/11/24 12:33:21;;;;;;;;;;;;;;;17.16;69.06;101957.25;5068253;28;1339;-63
2021/11/24 12:35:49;;;;;;;;;;;;;;;17.16;69.06;101959.91;5069981;28;1664;-63
2021/11/24 12:38:16;;;;;;;;;;;;;;;17.16;69.01;101963.44;5069362;28;1471;-68
2021/11/24 12:40:43;;;;;;;;;;;;;;;17.14;68.91;101959.16;5066274;28;1397;-69
2021/11/24 12:43:15;;;;;;;;;;;;;;;17.15;69.44;101959.06;5063328;28;1973;-63
2021/11/24 12:45:42;;;;;;;;;;;;;;;17.15;69.10;101952.84;5062793;28;1517;-68
2021/11/24 12:48:09;;;;;;;;;;;;;;;17.16;69.11;101946.56;5069017;28;1227;-63
2021/11/24 12:50:36;;;;;;;;;;;;;;;17.15;69.04;101953.72;5070905;28;1505;-63
2021/11/24 12:53:04;;;;;;;;;;;;;;;17.15;69.11;101952.84;5062532;28;1617;-68
2021/11/24 12:55:31;;;;;;;;;;;;;;;17.15;69.09;101950.16;5068787;28;1354;-63
2021/11/24 12:57:58;;;;;;;;;;;;;;;17.15;68.92;101960.84;5069701;28;1574;-67
2021/11/24 13:00:25;;;;;;;;;;;;;;;17.15;68.90;101947.50;5062511;28;1419;-64
2021/11/24 13:02:52;;;;;;;;;;;;;;;17.14;69.12;101951.97;5063830;28;1988;-68